createdAt,value
2023-04-05T00:01:58.743Z,2.97
2023-04-05T00:06:57.624Z,3.15
2023-04-05T00:11:56.941Z,1.90
2023-04-05T00:16:56.501Z,2.38
2023-04-05T00:21:54.846Z,2.60
2023-04-05T00:26:53.068Z,2.80
2023-04-05T00:31:51.440Z,13.57
2023-04-05T00:36:51.412Z,9.88
2023-04-05T00:41:49.743Z,2.70
2023-04-05T00:46:47.918Z,2.03
2023-04-05T00:51:46.573Z,1.90
2023-04-05T00:56:46.290Z,1.90
2023-04-05T01:01:55.231Z,2.22
2023-04-05T01:07:06.422Z,2.50
2023-04-05T01:12:08.254Z,2.40
2023-04-05T01:17:09.706Z,4.15
2023-04-05T01:22:17.433Z,6.70
2023-04-05T01:27:21.039Z,12.05
2023-04-05T01:32:37.861Z,4.28
2023-04-05T01:37:36.580Z,2.83
2023-04-05T01:42:34.897Z,5.45
2023-04-05T01:47:34.521Z,3.78
2023-04-05T01:52:33.239Z,3.13
2023-04-05T01:57:31.638Z,2.90
2023-04-05T02:02:29.887Z,3.10
2023-04-05T02:07:29.502Z,3.75
2023-04-05T02:12:27.666Z,2.78
2023-04-05T02:17:26.126Z,23.08
2023-04-05T02:22:24.326Z,41.15
2023-04-05T02:27:24.037Z,38.95
2023-04-05T02:32:26.214Z,7.43
2023-04-05T02:37:26.188Z,4.60
2023-04-05T02:42:25.790Z,18.38
2023-04-05T02:47:24.050Z,18.58
2023-04-05T02:52:26.577Z,26.70
2023-04-05T02:57:26.349Z,30.55
2023-04-05T03:02:32.695Z,22.70
2023-04-05T03:07:33.062Z,19.40
2023-04-05T03:12:35.199Z,19.92
2023-04-05T03:17:33.969Z,24.42
2023-04-05T03:22:34.537Z,68.10
2023-04-05T03:27:35.178Z,23.45
2023-04-05T03:32:38.246Z,36.63
2023-04-05T03:37:56.540Z,26.80
2023-04-05T03:42:56.519Z,26.25
2023-04-05T03:47:55.343Z,38.97
2023-04-05T03:52:53.775Z,43.83
2023-04-05T03:57:55.625Z,36.92
2023-04-05T04:03:00.454Z,29.52
2023-04-05T04:07:59.546Z,38.40
2023-04-05T04:12:57.936Z,28.88
2023-04-05T04:18:02.241Z,25.80
2023-04-05T04:23:17.062Z,23.42
2023-04-05T04:28:34.961Z,18.90
2023-04-05T04:33:48.203Z,19.80
2023-04-05T04:39:10.335Z,19.00
2023-04-05T04:44:31.519Z,18.45
2023-04-05T04:49:51.824Z,40.20
2023-04-05T04:54:50.967Z,20.63
2023-04-05T04:59:50.193Z,27.60
2023-04-05T05:04:48.358Z,28.63
2023-04-05T05:09:48.007Z,16.58
2023-04-05T05:14:46.152Z,20.80
2023-04-05T05:19:44.298Z,16.15
2023-04-05T05:24:42.705Z,16.27
2023-04-05T05:29:42.401Z,18.95
2023-04-05T05:34:40.688Z,21.52
2023-04-05T05:39:39.107Z,17.38
2023-04-05T05:44:37.450Z,13.68
2023-04-05T05:49:36.966Z,21.15
2023-04-05T05:54:35.134Z,15.02
2023-04-05T05:59:33.304Z,15.13
2023-04-05T06:04:31.576Z,15.00
2023-04-05T06:09:33.954Z,17.30
2023-04-05T06:14:32.088Z,14.50
2023-04-05T06:19:30.248Z,22.30
2023-04-05T06:24:31.803Z,34.80
2023-04-05T06:29:31.451Z,32.42
2023-04-05T06:34:29.895Z,16.27
2023-04-05T06:39:28.060Z,13.00
2023-04-05T06:44:26.209Z,15.10
2023-04-05T06:49:25.673Z,15.63
2023-04-05T06:54:25.003Z,14.27
2023-04-05T06:59:23.179Z,11.48
2023-04-05T07:04:21.368Z,21.27
2023-04-05T07:09:22.324Z,26.73
2023-04-05T07:14:20.626Z,22.30
2023-04-05T07:19:18.929Z,22.90
2023-04-05T07:24:17.140Z,15.50
2023-04-05T07:29:16.758Z,12.43
2023-04-05T07:34:14.914Z,20.55
2023-04-05T07:39:13.070Z,9.43
2023-04-05T07:44:11.644Z,9.32
2023-04-05T07:49:11.299Z,13.18
2023-04-05T07:54:09.469Z,10.38
2023-04-05T07:59:07.739Z,15.30
2023-04-05T08:04:05.999Z,12.73
2023-04-05T08:09:05.830Z,8.75
2023-04-05T08:14:04.097Z,13.60
2023-04-05T08:19:02.334Z,8.02
2023-04-05T08:24:00.756Z,7.90
2023-04-05T08:29:00.685Z,11.82
2023-04-05T08:33:58.898Z,13.55
2023-04-05T08:38:57.009Z,11.05
2023-04-05T08:43:57.676Z,12.73
2023-04-05T08:48:58.232Z,7.75
2023-04-05T08:53:56.491Z,7.78
2023-04-05T08:58:58.947Z,8.50
2023-04-05T09:04:00.051Z,6.13
2023-04-05T09:08:58.663Z,7.53
2023-04-05T09:13:56.800Z,6.82
2023-04-05T09:18:54.899Z,5.95
2023-04-05T09:23:55.872Z,16.10
2023-04-05T09:28:54.186Z,10.45
2023-04-05T09:33:52.322Z,7.70
2023-04-05T09:38:50.453Z,11.30
2023-04-05T09:43:49.961Z,23.40
2023-04-05T09:48:48.503Z,7.13
2023-04-05T09:53:59.942Z,6.30
2023-04-05T09:59:04.439Z,5.45
2023-04-05T10:04:03.107Z,8.90
2023-04-05T10:09:01.449Z,10.10
2023-04-05T10:14:01.895Z,8.38
2023-04-05T10:19:03.009Z,5.45
2023-04-05T10:24:05.905Z,6.10
2023-04-05T10:29:10.296Z,7.35
2023-04-05T10:34:15.563Z,6.07
2023-04-05T10:39:14.862Z,5.65
2023-04-05T10:44:24.791Z,6.38
2023-04-05T10:49:30.442Z,9.77
2023-04-05T10:54:29.633Z,7.88
2023-04-05T10:59:28.866Z,6.07
2023-04-05T11:04:28.447Z,7.63
2023-04-05T11:09:27.117Z,6.80
2023-04-05T11:14:26.435Z,7.95
2023-04-05T11:19:39.439Z,9.90
2023-04-05T11:24:53.149Z,7.32
2023-04-05T11:29:51.386Z,8.82
2023-04-05T11:34:59.892Z,8.13
2023-04-05T11:40:12.929Z,18.13
2023-04-05T11:45:12.535Z,9.10
2023-04-05T11:50:11.179Z,8.35
2023-04-05T11:55:11.844Z,11.65
2023-04-05T12:00:10.663Z,7.70
2023-04-05T12:05:11.210Z,10.88
2023-04-05T12:10:11.873Z,22.27
2023-04-05T12:15:11.889Z,9.60
2023-04-05T12:20:12.334Z,10.30
2023-04-05T12:25:11.105Z,8.43
2023-04-05T12:30:10.581Z,8.32
2023-04-05T12:35:11.532Z,10.48
2023-04-05T12:40:12.059Z,11.10
2023-04-05T12:45:13.807Z,7.05
2023-04-05T12:50:13.026Z,8.02
2023-04-05T12:55:17.403Z,14.93
2023-04-05T13:00:16.150Z,11.88
2023-04-05T13:05:14.298Z,17.38
2023-04-05T13:10:12.492Z,9.35
2023-04-05T13:15:12.235Z,8.68
2023-04-05T13:20:11.089Z,7.40
2023-04-05T13:25:10.820Z,8.75
2023-04-05T13:30:09.248Z,9.30
2023-04-05T13:35:09.312Z,9.98
2023-04-05T13:40:08.176Z,14.98
2023-04-05T13:45:06.876Z,9.95
2023-04-05T13:50:08.611Z,6.15
2023-04-05T13:55:07.239Z,9.98
2023-04-05T14:00:06.545Z,8.10
2023-04-05T14:10:11.653Z,10.35
2023-04-05T14:15:10.114Z,10.00
2023-04-05T14:20:08.846Z,10.68
2023-04-05T14:25:08.351Z,51.03
2023-04-05T14:30:08.893Z,75.25
2023-04-05T14:35:07.610Z,35.90
2023-04-05T14:40:06.268Z,40.92
2023-04-05T14:45:04.680Z,38.45
2023-04-05T14:50:04.528Z,30.15
2023-04-05T14:55:02.927Z,24.50
2023-04-05T15:00:01.382Z,22.63
2023-04-05T15:05:00.769Z,23.60
2023-04-05T15:10:00.488Z,43.45
2023-04-05T15:14:58.955Z,24.60
2023-04-05T15:19:57.162Z,112.22
2023-04-05T15:24:56.378Z,42.17
2023-04-05T15:29:55.982Z,35.45
2023-04-05T15:34:54.423Z,54.92
2023-04-05T15:39:52.675Z,103.03
2023-04-05T15:44:51.229Z,69.10
2023-04-05T15:49:51.654Z,72.45
2023-04-05T15:54:50.044Z,52.53
2023-04-05T15:59:48.283Z,37.22
2023-04-05T16:04:46.514Z,21.38
2023-04-05T16:09:46.275Z,38.72
2023-04-05T16:14:44.550Z,34.95
2023-04-05T16:19:42.770Z,34.90
2023-04-05T16:24:40.994Z,34.25
2023-04-05T16:29:40.796Z,34.55
2023-04-05T16:34:39.052Z,31.38
2023-04-05T16:39:37.442Z,27.73
2023-04-05T16:44:35.910Z,25.48
2023-04-05T16:49:37.357Z,15.75
2023-04-05T16:54:35.618Z,21.70
2023-04-05T16:59:33.873Z,26.67
2023-04-05T17:04:32.469Z,27.05
2023-04-05T17:09:33.221Z,24.25
2023-04-05T17:14:31.555Z,118.70
2023-04-05T17:19:29.816Z,45.58
2023-04-05T17:24:28.069Z,43.05
2023-04-05T17:29:27.663Z,77.65
2023-04-05T17:34:25.925Z,26.48
2023-04-05T17:39:24.143Z,51.67
2023-04-05T17:44:22.371Z,41.15
2023-04-05T17:49:22.156Z,18.45
2023-04-05T17:54:20.616Z,55.03
2023-04-05T17:59:18.981Z,36.25
2023-04-05T18:04:17.324Z,59.72
2023-04-05T18:09:17.208Z,34.53
2023-04-05T18:14:15.509Z,47.42
2023-04-05T18:19:17.572Z,30.95
2023-04-05T18:24:17.474Z,15.73
2023-04-05T18:29:15.765Z,24.92
2023-04-05T18:34:14.104Z,23.63
2023-04-05T18:39:14.772Z,20.00
2023-04-05T18:44:14.586Z,19.00
2023-04-05T18:49:15.312Z,38.28
2023-04-05T18:54:14.123Z,14.70
2023-04-05T18:59:12.610Z,16.38
2023-04-05T19:04:12.359Z,18.25
2023-04-05T19:09:10.716Z,12.77
2023-04-05T19:14:09.118Z,9.80
2023-04-05T19:19:07.568Z,25.17
2023-04-05T19:24:09.786Z,45.97
2023-04-05T19:29:08.549Z,50.17
2023-04-05T19:34:07.310Z,25.17
2023-04-05T19:39:07.779Z,20.83
2023-04-05T19:44:09.122Z,22.00
2023-04-05T19:49:09.647Z,14.57
2023-04-05T19:54:13.158Z,17.25
2023-04-05T19:59:29.133Z,18.08
2023-04-05T20:04:28.242Z,18.40
2023-04-05T20:09:29.360Z,17.52
2023-04-05T20:14:29.025Z,16.50
2023-04-05T20:19:28.817Z,14.27
2023-04-05T20:24:29.427Z,13.60
2023-04-05T20:29:28.325Z,17.45
2023-04-05T20:34:29.328Z,14.13
2023-04-05T20:39:28.966Z,14.10
2023-04-05T20:44:29.145Z,12.45
2023-04-05T20:49:28.147Z,12.73
2023-04-05T20:54:26.489Z,13.77
2023-04-05T20:59:26.677Z,14.68
2023-04-05T21:04:25.054Z,12.63
2023-04-05T21:09:23.577Z,14.20
2023-04-05T21:14:21.831Z,12.35
2023-04-05T21:19:21.450Z,11.55
2023-04-05T21:24:19.850Z,11.32
2023-04-05T21:29:18.067Z,19.55
2023-04-05T21:34:16.327Z,28.50
2023-04-05T21:39:16.042Z,24.17
2023-04-05T21:44:14.811Z,10.23
2023-04-05T21:49:13.128Z,13.25
2023-04-05T21:54:11.346Z,15.40
2023-04-05T21:59:11.157Z,28.80
2023-04-05T22:04:09.538Z,15.55
2023-04-05T22:09:08.023Z,23.48
2023-04-05T22:14:06.575Z,16.77
2023-04-05T22:19:07.929Z,15.75
2023-04-05T22:24:06.598Z,39.72
2023-04-05T22:29:05.082Z,19.13
2023-04-05T22:34:03.356Z,37.92
2023-04-05T22:39:02.941Z,43.80
2023-04-05T22:44:01.273Z,29.20
2023-04-05T22:48:59.506Z,29.42
2023-04-05T22:53:57.722Z,38.95
2023-04-05T22:58:57.350Z,17.95
2023-04-05T23:03:55.628Z,16.63
2023-04-05T23:08:53.853Z,12.90
2023-04-05T23:13:52.136Z,18.70
2023-04-05T23:18:51.924Z,19.02
2023-04-05T23:23:50.236Z,18.33
2023-04-05T23:28:48.509Z,22.00
2023-04-05T23:33:46.763Z,18.20
2023-04-05T23:38:46.391Z,15.02
2023-04-05T23:43:44.714Z,30.15
2023-04-05T23:48:42.969Z,14.48
2023-04-05T23:53:41.281Z,14.05
2023-04-05T23:58:42.354Z,14.82
